sensor_id;sensor_type;location;lat;lon;timestamp;pressure;altitude;pressure_sealevel;temperature;humidity
35551;BME280;21655;46.056;13.616;2023-01-28T00:01:38;100353.22;;;3.68;100.00
35551;BME280;21655;46.056;13.616;2023-01-28T00:04:03;100350.59;;;3.66;100.00
35551;BME280;21655;46.056;13.616;2023-01-28T00:06:29;100345.69;;;3.61;100.00
35551;BME280;21655;46.056;13.616;2023-01-28T00:08:54;100347.75;;;3.68;100.00
35551;BME280;21655;46.056;13.616;2023-01-28T00:11:21;100338.91;;;3.64;100.00
35551;BME280;21655;46.056;13.616;2023-01-28T00:13:51;100339.63;;;3.66;100.00
35551;BME280;21655;46.056;13.616;2023-01-28T00:16:17;100351.34;;;3.68;100.00
35551;BME280;21655;46.056;13.616;2023-01-28T00:18:42;100349.47;;;3.69;100.00
35551;BME280;21655;46.056;13.616;2023-01-28T00:21:12;100349.28;;;3.61;100.00
35551;BME280;21655;46.056;13.616;2023-01-28T00:23:40;100351.50;;;3.67;100.00
35551;BME280;21655;46.056;13.616;2023-01-28T00:26:09;100354.63;;;3.63;100.00
35551;BME280;21655;46.056;13.616;2023-01-28T00:28:35;100353.19;;;3.59;100.00
35551;BME280;21655;46.056;13.616;2023-01-28T00:31:14;100354.38;;;3.45;100.00
35551;BME280;21655;46.056;13.616;2023-01-28T00:33:41;100354.94;;;3.39;100.00
35551;BME280;21655;46.056;13.616;2023-01-28T00:36:07;100350.06;;;3.43;100.00
35551;BME280;21655;46.056;13.616;2023-01-28T00:38:33;100341.91;;;3.32;100.00
35551;BME280;21655;46.056;13.616;2023-01-28T00:41:11;100345.72;;;3.20;100.00
35551;BME280;21655;46.056;13.616;2023-01-28T00:43:37;100354.50;;;3.14;100.00
35551;BME280;21655;46.056;13.616;2023-01-28T00:46:03;100351.69;;;3.04;100.00
35551;BME280;21655;46.056;13.616;2023-01-28T00:48:29;100350.72;;;2.94;100.00
35551;BME280;21655;46.056;13.616;2023-01-28T00:50:55;100345.41;;;2.93;100.00
35551;BME280;21655;46.056;13.616;2023-01-28T00:53:21;100347.41;;;2.91;100.00
35551;BME280;21655;46.056;13.616;2023-01-28T00:55:46;100350.31;;;2.78;100.00
35551;BME280;21655;46.056;13.616;2023-01-28T00:58:12;100343.41;;;2.63;100.00
35551;BME280;21655;46.056;13.616;2023-01-28T01:00:37;100350.44;;;2.56;100.00
35551;BME280;21655;46.056;13.616;2023-01-28T01:03:03;100344.66;;;2.70;100.00
35551;BME280;21655;46.056;13.616;2023-01-28T01:05:28;100350.28;;;2.89;100.00
35551;BME280;21655;46.056;13.616;2023-01-28T01:07:54;100360.31;;;3.20;100.00
35551;BME280;21655;46.056;13.616;2023-01-28T01:10:20;100358.16;;;3.03;100.00
35551;BME280;21655;46.056;13.616;2023-01-28T01:12:47;100355.16;;;3.06;100.00
35551;BME280;21655;46.056;13.616;2023-01-28T01:15:13;100358.09;;;2.94;100.00
35551;BME280;21655;46.056;13.616;2023-01-28T01:17:40;100364.19;;;2.97;100.00
35551;BME280;21655;46.056;13.616;2023-01-28T01:20:11;100357.03;;;2.85;100.00
35551;BME280;21655;46.056;13.616;2023-01-28T01:22:37;100366.47;;;2.61;100.00
35551;BME280;21655;46.056;13.616;2023-01-28T01:25:03;100374.59;;;2.40;100.00
35551;BME280;21655;46.056;13.616;2023-01-28T01:27:30;100365.94;;;2.24;100.00
35551;BME280;21655;46.056;13.616;2023-01-28T01:29:55;100373.31;;;2.02;100.00
35551;BME280;21655;46.056;13.616;2023-01-28T01:32:21;100377.31;;;1.98;100.00
35551;BME280;21655;46.056;13.616;2023-01-28T01:34:47;100377.44;;;1.75;100.00
35551;BME280;21655;46.056;13.616;2023-01-28T01:37:13;100385.66;;;1.53;100.00
35551;BME280;21655;46.056;13.616;2023-01-28T01:39:38;100384.16;;;1.60;100.00
35551;BME280;21655;46.056;13.616;2023-01-28T01:42:04;100386.78;;;1.61;100.00
35551;BME280;21655;46.056;13.616;2023-01-28T01:44:51;100402.28;;;1.50;100.00
35551;BME280;21655;46.056;13.616;2023-01-28T01:47:18;100399.41;;;1.51;100.00
35551;BME280;21655;46.056;13.616;2023-01-28T01:49:46;100416.66;;;1.41;100.00
35551;BME280;21655;46.056;13.616;2023-01-28T01:52:15;100405.34;;;1.34;100.00
35551;BME280;21655;46.056;13.616;2023-01-28T01:54:45;100413.16;;;1.28;100.00
35551;BME280;21655;46.056;13.616;2023-01-28T01:57:13;100420.56;;;1.15;100.00
35551;BME280;21655;46.056;13.616;2023-01-28T01:59:41;100413.25;;;1.15;100.00
35551;BME280;21655;46.056;13.616;2023-01-28T02:02:09;100421.72;;;1.23;100.00
35551;BME280;21655;46.056;13.616;2023-01-28T02:04:38;100417.16;;;1.35;100.00
35551;BME280;21655;46.056;13.616;2023-01-28T02:07:04;100433.91;;;1.30;100.00
35551;BME280;21655;46.056;13.616;2023-01-28T02:09:32;100425.97;;;1.27;100.00
35551;BME280;21655;46.056;13.616;2023-01-28T02:12:10;100429.28;;;1.20;100.00
35551;BME280;21655;46.056;13.616;2023-01-28T02:14:46;100417.97;;;1.13;100.00
35551;BME280;21655;46.056;13.616;2023-01-28T02:17:12;100417.34;;;1.10;100.00
35551;BME280;21655;46.056;13.616;2023-01-28T02:19:55;100414.63;;;1.10;100.00
35551;BME280;21655;46.056;13.616;2023-01-28T02:30:57;100418.72;;;0.81;100.00
35551;BME280;21655;46.056;13.616;2023-01-28T02:33:33;100417.22;;;0.77;100.00
35551;BME280;21655;46.056;13.616;2023-01-28T02:36:17;100427.63;;;0.72;100.00
35551;BME280;21655;46.056;13.616;2023-01-28T02:38:49;100422.69;;;0.77;100.00
35551;BME280;21655;46.056;13.616;2023-01-28T02:41:31;100424.25;;;0.68;100.00
35551;BME280;21655;46.056;13.616;2023-01-28T02:44:01;100430.34;;;0.72;100.00
35551;BME280;21655;46.056;13.616;2023-01-28T02:49:39;100431.59;;;0.68;100.00
35551;BME280;21655;46.056;13.616;2023-01-28T02:52:21;100423.09;;;0.60;100.00
35551;BME280;21655;46.056;13.616;2023-01-28T02:58:30;100423.09;;;0.83;100.00
35551;BME280;21655;46.056;13.616;2023-01-28T03:01:01;100426.84;;;0.93;100.00
35551;BME280;21655;46.056;13.616;2023-01-28T03:03:55;100431.81;;;0.99;100.00
35551;BME280;21655;46.056;13.616;2023-01-28T03:06:32;100441.34;;;0.94;100.00
35551;BME280;21655;46.056;13.616;2023-01-28T03:09:05;100437.38;;;0.98;100.00
35551;BME280;21655;46.056;13.616;2023-01-28T03:14:52;100440.19;;;0.85;100.00
35551;BME280;21655;46.056;13.616;2023-01-28T03:17:43;100436.72;;;0.83;100.00
35551;BME280;21655;46.056;13.616;2023-01-28T03:20:36;100447.88;;;0.80;100.00
35551;BME280;21655;46.056;13.616;2023-01-28T03:23:27;100459.47;;;0.71;100.00
35551;BME280;21655;46.056;13.616;2023-01-28T03:26:13;100455.34;;;0.66;100.00
35551;BME280;21655;46.056;13.616;2023-01-28T03:29:04;100455.81;;;0.60;100.00
35551;BME280;21655;46.056;13.616;2023-01-28T03:31:50;100460.44;;;0.59;100.00
35551;BME280;21655;46.056;13.616;2023-01-28T03:34:35;100466.75;;;0.60;100.00
35551;BME280;21655;46.056;13.616;2023-01-28T03:37:19;100466.03;;;0.45;100.00
35551;BME280;21655;46.056;13.616;2023-01-28T03:39:45;100462.19;;;0.48;100.00
35551;BME280;21655;46.056;13.616;2023-01-28T03:42:12;100468.53;;;0.48;100.00
35551;BME280;21655;46.056;13.616;2023-01-28T03:44:38;100465.50;;;0.40;100.00
35551;BME280;21655;46.056;13.616;2023-01-28T03:47:27;100469.03;;;0.30;100.00
35551;BME280;21655;46.056;13.616;2023-01-28T03:49:53;100464.31;;;0.32;100.00
35551;BME280;21655;46.056;13.616;2023-01-28T03:52:22;100463.94;;;0.25;100.00
35551;BME280;21655;46.056;13.616;2023-01-28T03:54:48;100471.97;;;0.27;100.00
35551;BME280;21655;46.056;13.616;2023-01-28T03:57:19;100474.47;;;0.30;100.00
35551;BME280;21655;46.056;13.616;2023-01-28T03:59:45;100474.47;;;0.30;100.00
35551;BME280;21655;46.056;13.616;2023-01-28T04:02:11;100476.69;;;0.25;100.00
35551;BME280;21655;46.056;13.616;2023-01-28T04:04:38;100475.69;;;0.26;100.00
35551;BME280;21655;46.056;13.616;2023-01-28T04:07:04;100478.97;;;0.18;100.00
35551;BME280;21655;46.056;13.616;2023-01-28T04:09:30;100488.25;;;0.16;100.00
35551;BME280;21655;46.056;13.616;2023-01-28T04:11:55;100473.28;;;0.21;100.00
35551;BME280;21655;46.056;13.616;2023-01-28T04:14:20;100477.94;;;0.44;100.00
35551;BME280;21655;46.056;13.616;2023-01-28T04:16:46;100475.78;;;0.37;100.00
35551;BME280;21655;46.056;13.616;2023-01-28T04:19:12;100481.22;;;0.37;100.00
35551;BME280;21655;46.056;13.616;2023-01-28T04:21:38;100479.91;;;0.42;100.00
35551;BME280;21655;46.056;13.616;2023-01-28T04:24:04;100479.72;;;0.56;100.00
35551;BME280;21655;46.056;13.616;2023-01-28T04:26:29;100480.84;;;0.54;100.00
35551;BME280;21655;46.056;13.616;2023-01-28T04:28:55;100486.06;;;0.57;100.00
35551;BME280;21655;46.056;13.616;2023-01-28T04:31:20;100489.06;;;0.65;100.00
35551;BME280;21655;46.056;13.616;2023-01-28T04:33:48;100493.84;;;0.50;100.00
35551;BME280;21655;46.056;13.616;2023-01-28T04:36:13;100491.81;;;0.41;100.00
35551;BME280;21655;46.056;13.616;2023-01-28T04:38:38;100488.09;;;0.42;100.00
35551;BME280;21655;46.056;13.616;2023-01-28T04:41:04;100506.34;;;0.29;100.00
35551;BME280;21655;46.056;13.616;2023-01-28T04:43:29;100503.06;;;0.24;100.00
35551;BME280;21655;46.056;13.616;2023-01-28T04:45:55;100507.84;;;0.33;100.00
35551;BME280;21655;46.056;13.616;2023-01-28T04:48:20;100500.22;;;0.26;100.00
35551;BME280;21655;46.056;13.616;2023-01-28T04:50:46;100517.91;;;0.20;100.00
35551;BME280;21655;46.056;13.616;2023-01-28T04:53:11;100500.03;;;0.16;100.00
35551;BME280;21655;46.056;13.616;2023-01-28T04:55:37;100514.50;;;0.29;100.00
35551;BME280;21655;46.056;13.616;2023-01-28T04:58:02;100521.19;;;0.25;100.00
35551;BME280;21655;46.056;13.616;2023-01-28T05:00:28;100522.22;;;0.35;100.00
35551;BME280;21655;46.056;13.616;2023-01-28T05:02:53;100521.38;;;0.35;100.00
35551;BME280;21655;46.056;13.616;2023-01-28T05:05:19;100525.09;;;0.34;100.00
35551;BME280;21655;46.056;13.616;2023-01-28T05:07:50;100527.50;;;0.26;100.00
35551;BME280;21655;46.056;13.616;2023-01-28T05:10:16;100536.31;;;0.29;100.00
35551;BME280;21655;46.056;13.616;2023-01-28T05:12:44;100539.91;;;0.30;100.00
35551;BME280;21655;46.056;13.616;2023-01-28T05:15:09;100537.72;;;0.22;100.00
35551;BME280;21655;46.056;13.616;2023-01-28T05:17:35;100540.03;;;0.28;100.00
35551;BME280;21655;46.056;13.616;2023-01-28T05:20:00;100546.91;;;0.21;100.00
35551;BME280;21655;46.056;13.616;2023-01-28T05:22:26;100545.06;;;0.22;100.00
35551;BME280;21655;46.056;13.616;2023-01-28T05:24:51;100549.19;;;0.15;100.00
35551;BME280;21655;46.056;13.616;2023-01-28T05:27:17;100549.97;;;0.04;100.00
35551;BME280;21655;46.056;13.616;2023-01-28T05:29:42;100554.78;;;0.01;100.00
35551;BME280;21655;46.056;13.616;2023-01-28T05:32:08;100556.50;;;-0.10;100.00
35551;BME280;21655;46.056;13.616;2023-01-28T05:34:33;100550.44;;;-0.14;100.00
35551;BME280;21655;46.056;13.616;2023-01-28T05:36:59;100563.16;;;-0.27;100.00
35551;BME280;21655;46.056;13.616;2023-01-28T05:39:24;100558.78;;;-0.29;100.00
35551;BME280;21655;46.056;13.616;2023-01-28T05:41:49;100568.94;;;-0.31;100.00
35551;BME280;21655;46.056;13.616;2023-01-28T05:44:15;100575.78;;;-0.38;100.00
35551;BME280;21655;46.056;13.616;2023-01-28T05:46:40;100573.59;;;-0.46;100.00
35551;BME280;21655;46.056;13.616;2023-01-28T05:49:10;100580.44;;;-0.53;100.00
35551;BME280;21655;46.056;13.616;2023-01-28T05:51:40;100582.94;;;-0.50;100.00
35551;BME280;21655;46.056;13.616;2023-01-28T05:54:06;100587.53;;;-0.50;100.00
35551;BME280;21655;46.056;13.616;2023-01-28T05:56:32;100595.91;;;-0.53;100.00
35551;BME280;21655;46.056;13.616;2023-01-28T05:58:59;100600.59;;;-0.55;100.00
35551;BME280;21655;46.056;13.616;2023-01-28T06:01:24;100604.53;;;-0.47;100.00
35551;BME280;21655;46.056;13.616;2023-01-28T06:03:50;100609.00;;;-0.46;100.00
35551;BME280;21655;46.056;13.616;2023-01-28T06:06:15;100597.34;;;-0.48;100.00
35551;BME280;21655;46.056;13.616;2023-01-28T06:08:41;100600.00;;;-0.60;100.00
35551;BME280;21655;46.056;13.616;2023-01-28T06:11:06;100607.25;;;-0.47;100.00
35551;BME280;21655;46.056;13.616;2023-01-28T06:13:32;100609.84;;;-0.45;100.00
35551;BME280;21655;46.056;13.616;2023-01-28T06:15:57;100601.97;;;-0.62;100.00
35551;BME280;21655;46.056;13.616;2023-01-28T06:18:23;100611.34;;;-0.66;100.00
35551;BME280;21655;46.056;13.616;2023-01-28T06:20:49;100607.94;;;-0.70;100.00
35551;BME280;21655;46.056;13.616;2023-01-28T06:23:14;100615.13;;;-0.69;100.00
35551;BME280;21655;46.056;13.616;2023-01-28T06:25:40;100617.97;;;-0.70;100.00
35551;BME280;21655;46.056;13.616;2023-01-28T06:28:05;100612.81;;;-0.75;100.00
35551;BME280;21655;46.056;13.616;2023-01-28T06:30:30;100624.78;;;-0.77;100.00
35551;BME280;21655;46.056;13.616;2023-01-28T06:32:56;100628.28;;;-0.75;100.00
35551;BME280;21655;46.056;13.616;2023-01-28T06:35:22;100635.47;;;-0.74;100.00
35551;BME280;21655;46.056;13.616;2023-01-28T06:37:47;100629.16;;;-0.75;100.00
35551;BME280;21655;46.056;13.616;2023-01-28T06:40:13;100644.50;;;-0.74;100.00
35551;BME280;21655;46.056;13.616;2023-01-28T06:42:38;100637.63;;;-0.79;100.00
35551;BME280;21655;46.056;13.616;2023-01-28T06:45:04;100651.22;;;-0.79;100.00
35551;BME280;21655;46.056;13.616;2023-01-28T06:47:29;100636.34;;;-0.74;100.00
35551;BME280;21655;46.056;13.616;2023-01-28T06:49:55;100648.75;;;-0.70;100.00
35551;BME280;21655;46.056;13.616;2023-01-28T06:52:20;100653.59;;;-0.61;100.00
35551;BME280;21655;46.056;13.616;2023-01-28T06:54:46;100651.28;;;-0.67;100.00
35551;BME280;21655;46.056;13.616;2023-01-28T06:57:11;100654.38;;;-0.59;100.00
35551;BME280;21655;46.056;13.616;2023-01-28T06:59:36;100654.06;;;-0.54;100.00
35551;BME280;21655;46.056;13.616;2023-01-28T07:02:02;100659.09;;;-0.48;100.00
35551;BME280;21655;46.056;13.616;2023-01-28T07:04:27;100658.22;;;-0.49;100.00
35551;BME280;21655;46.056;13.616;2023-01-28T07:06:53;100652.59;;;-0.33;100.00
35551;BME280;21655;46.056;13.616;2023-01-28T07:09:19;100657.59;;;-0.27;100.00
35551;BME280;21655;46.056;13.616;2023-01-28T07:11:44;100662.31;;;-0.17;100.00
35551;BME280;21655;46.056;13.616;2023-01-28T07:14:10;100651.78;;;-0.09;100.00
35551;BME280;21655;46.056;13.616;2023-01-28T07:16:35;100655.94;;;-0.03;100.00
35551;BME280;21655;46.056;13.616;2023-01-28T07:19:01;100658.34;;;0.01;100.00
35551;BME280;21655;46.056;13.616;2023-01-28T07:21:26;100662.06;;;0.00;100.00
35551;BME280;21655;46.056;13.616;2023-01-28T07:23:51;100660.19;;;0.13;100.00
35551;BME280;21655;46.056;13.616;2023-01-28T07:26:17;100671.44;;;0.08;100.00
35551;BME280;21655;46.056;13.616;2023-01-28T07:28:44;100669.16;;;0.27;100.00
35551;BME280;21655;46.056;13.616;2023-01-28T07:31:09;100671.00;;;0.39;100.00
35551;BME280;21655;46.056;13.616;2023-01-28T07:33:35;100672.09;;;0.49;100.00
35551;BME280;21655;46.056;13.616;2023-01-28T07:36:00;100674.28;;;0.57;100.00
35551;BME280;21655;46.056;13.616;2023-01-28T07:38:26;100672.06;;;0.62;100.00
35551;BME280;21655;46.056;13.616;2023-01-28T07:40:51;100677.19;;;0.79;100.00
35551;BME280;21655;46.056;13.616;2023-01-28T07:43:17;100677.84;;;0.82;100.00
35551;BME280;21655;46.056;13.616;2023-01-28T07:45:42;100672.91;;;1.00;100.00
35551;BME280;21655;46.056;13.616;2023-01-28T07:48:10;100675.50;;;1.37;100.00
35551;BME280;21655;46.056;13.616;2023-01-28T07:50:36;100690.22;;;1.71;100.00
35551;BME280;21655;46.056;13.616;2023-01-28T07:53:04;100681.06;;;2.17;100.00
35551;BME280;21655;46.056;13.616;2023-01-28T07:55:30;100668.88;;;5.46;100.00
35551;BME280;21655;46.056;13.616;2023-01-28T07:57:59;100657.03;;;9.16;100.00
35551;BME280;21655;46.056;13.616;2023-01-28T08:00:27;100659.16;;;8.01;90.57
35551;BME280;21655;46.056;13.616;2023-01-28T08:02:57;100664.97;;;6.07;99.24
35551;BME280;21655;46.056;13.616;2023-01-28T08:05:25;100661.41;;;5.18;100.00
35551;BME280;21655;46.056;13.616;2023-01-28T08:07:51;100679.59;;;5.10;100.00
35551;BME280;21655;46.056;13.616;2023-01-28T08:10:17;100676.28;;;5.46;100.00
35551;BME280;21655;46.056;13.616;2023-01-28T08:12:54;100665.94;;;10.42;90.33
35551;BME280;21655;46.056;13.616;2023-01-28T08:15:20;100650.00;;;12.68;64.08
35551;BME280;21655;46.056;13.616;2023-01-28T08:17:46;100657.41;;;12.98;56.31
35551;BME280;21655;46.056;13.616;2023-01-28T08:20:12;100655.59;;;11.46;57.65
35551;BME280;21655;46.056;13.616;2023-01-28T08:22:38;100655.38;;;9.31;65.88
35551;BME280;21655;46.056;13.616;2023-01-28T08:25:03;100664.41;;;7.77;72.64
35551;BME280;21655;46.056;13.616;2023-01-28T08:27:29;100671.22;;;6.93;78.25
35551;BME280;21655;46.056;13.616;2023-01-28T08:29:54;100656.38;;;7.57;85.18
35551;BME280;21655;46.056;13.616;2023-01-28T08:32:20;100661.94;;;10.93;69.56
35551;BME280;21655;46.056;13.616;2023-01-28T08:34:45;100642.19;;;12.64;58.81
35551;BME280;21655;46.056;13.616;2023-01-28T08:37:10;100644.41;;;12.91;54.55
35551;BME280;21655;46.056;13.616;2023-01-28T08:39:36;100656.06;;;9.33;61.64
35551;BME280;21655;46.056;13.616;2023-01-28T08:42:01;100656.41;;;8.01;68.19
35551;BME280;21655;46.056;13.616;2023-01-28T08:44:27;100660.00;;;7.04;76.55
35551;BME280;21655;46.056;13.616;2023-01-28T08:46:52;100666.34;;;7.14;81.06
35551;BME280;21655;46.056;13.616;2023-01-28T08:49:17;100668.19;;;6.77;84.16
35551;BME280;21655;46.056;13.616;2023-01-28T08:51:43;100662.00;;;6.65;90.77
35551;BME280;21655;46.056;13.616;2023-01-28T08:54:08;100665.66;;;6.28;100.00
35551;BME280;21655;46.056;13.616;2023-01-28T08:56:34;100672.53;;;5.56;100.00
35551;BME280;21655;46.056;13.616;2023-01-28T08:58:59;100677.34;;;5.24;100.00
35551;BME280;21655;46.056;13.616;2023-01-28T09:01:24;100675.50;;;5.34;100.00
35551;BME280;21655;46.056;13.616;2023-01-28T09:03:53;100674.56;;;5.54;100.00
35551;BME280;21655;46.056;13.616;2023-01-28T09:06:18;100671.00;;;5.82;98.48
35551;BME280;21655;46.056;13.616;2023-01-28T09:08:44;100675.50;;;5.83;97.42
35551;BME280;21655;46.056;13.616;2023-01-28T09:11:09;100674.34;;;5.95;97.76
35551;BME280;21655;46.056;13.616;2023-01-28T09:13:35;100681.78;;;6.04;97.78
35551;BME280;21655;46.056;13.616;2023-01-28T09:16:04;100682.50;;;6.15;96.41
35551;BME280;21655;46.056;13.616;2023-01-28T09:18:29;100681.34;;;6.18;97.54
35551;BME280;21655;46.056;13.616;2023-01-28T09:20:54;100683.63;;;5.94;97.91
35551;BME280;21655;46.056;13.616;2023-01-28T09:23:20;100680.88;;;5.84;97.66
35551;BME280;21655;46.056;13.616;2023-01-28T09:25:45;100683.38;;;5.57;99.30
35551;BME280;21655;46.056;13.616;2023-01-28T09:28:11;100687.53;;;5.91;99.48
35551;BME280;21655;46.056;13.616;2023-01-28T09:30:36;100686.56;;;6.11;96.98
35551;BME280;21655;46.056;13.616;2023-01-28T09:33:02;100682.81;;;9.58;83.33
35551;BME280;21655;46.056;13.616;2023-01-28T09:35:27;100672.06;;;12.25;60.36
35551;BME280;21655;46.056;13.616;2023-01-28T09:37:56;100671.31;;;10.68;60.71
35551;BME280;21655;46.056;13.616;2023-01-28T09:40:42;100677.00;;;10.34;61.38
35551;BME280;21655;46.056;13.616;2023-01-28T09:45:52;100686.88;;;10.29;62.50
35551;BME280;21655;46.056;13.616;2023-01-28T09:48:22;100680.88;;;10.57;61.18
35551;BME280;21655;46.056;13.616;2023-01-28T09:50:50;100674.63;;;10.55;59.22
35551;BME280;21655;46.056;13.616;2023-01-28T09:53:31;100678.44;;;12.56;56.11
35551;BME280;21655;46.056;13.616;2023-01-28T09:56:05;100667.78;;;11.29;55.33
35551;BME280;21655;46.056;13.616;2023-01-28T09:58:34;100685.41;;;10.01;56.97
35551;BME280;21655;46.056;13.616;2023-01-28T10:17:06;100682.59;;;7.43;70.43
35551;BME280;21655;46.056;13.616;2023-01-28T10:19:44;100676.53;;;7.67;70.78
35551;BME280;21655;46.056;13.616;2023-01-28T10:22:33;100674.41;;;7.61;70.66
35551;BME280;21655;46.056;13.616;2023-01-28T10:25:05;100682.41;;;7.54;71.01
35551;BME280;21655;46.056;13.616;2023-01-28T10:27:33;100678.69;;;7.46;70.30
35551;BME280;21655;46.056;13.616;2023-01-28T10:30:16;100675.91;;;7.73;71.12
35551;BME280;21655;46.056;13.616;2023-01-28T10:32:55;100681.78;;;9.26;67.30
35551;BME280;21655;46.056;13.616;2023-01-28T10:35:24;100673.41;;;9.10;66.16
35551;BME280;21655;46.056;13.616;2023-01-28T10:37:59;100674.53;;;8.99;65.20
35551;BME280;21655;46.056;13.616;2023-01-28T10:40:25;100675.34;;;9.17;65.04
35551;BME280;21655;46.056;13.616;2023-01-28T10:42:51;100673.53;;;9.67;64.31
35551;BME280;21655;46.056;13.616;2023-01-28T10:45:17;100678.69;;;9.28;62.70
35551;BME280;21655;46.056;13.616;2023-01-28T10:47:48;100671.44;;;9.02;64.67
35551;BME280;21655;46.056;13.616;2023-01-28T10:50:21;100672.69;;;8.82;65.16
35551;BME280;21655;46.056;13.616;2023-01-28T10:52:56;100671.88;;;9.48;64.43
35551;BME280;21655;46.056;13.616;2023-01-28T10:55:23;100679.44;;;10.85;60.73
35551;BME280;21655;46.056;13.616;2023-01-28T10:57:52;100665.94;;;10.82;58.56
35551;BME280;21655;46.056;13.616;2023-01-28T11:00:32;100674.09;;;10.60;59.21
35551;BME280;21655;46.056;13.616;2023-01-28T11:02:58;100669.97;;;9.90;60.27
35551;BME280;21655;46.056;13.616;2023-01-28T11:05:28;100660.38;;;9.69;61.44
35551;BME280;21655;46.056;13.616;2023-01-28T11:10:37;100662.50;;;9.41;61.69
35551;BME280;21655;46.056;13.616;2023-01-28T11:13:05;100663.56;;;9.48;62.41
35551;BME280;21655;46.056;13.616;2023-01-28T11:15:32;100646.53;;;9.69;61.49
35551;BME280;21655;46.056;13.616;2023-01-28T11:18:00;100651.78;;;9.96;60.89
35551;BME280;21655;46.056;13.616;2023-01-28T11:20:28;100654.94;;;10.01;60.90
35551;BME280;21655;46.056;13.616;2023-01-28T11:22:55;100648.94;;;10.13;59.72
35551;BME280;21655;46.056;13.616;2023-01-28T11:25:33;100641.59;;;9.96;60.92
35551;BME280;21655;46.056;13.616;2023-01-28T11:28:01;100650.34;;;9.68;61.69
35551;BME280;21655;46.056;13.616;2023-01-28T11:30:30;100641.63;;;9.55;62.08
35551;BME280;21655;46.056;13.616;2023-01-28T11:33:21;100646.63;;;9.51;65.52
35551;BME280;21655;46.056;13.616;2023-01-28T11:36:03;100641.78;;;9.53;63.05
35551;BME280;21655;46.056;13.616;2023-01-28T11:38:29;100636.84;;;9.24;63.19
35551;BME280;21655;46.056;13.616;2023-01-28T11:40:57;100642.16;;;9.17;63.37
35551;BME280;21655;46.056;13.616;2023-01-28T11:43:27;100635.59;;;8.93;62.97
35551;BME280;21655;46.056;13.616;2023-01-28T11:48:43;100634.50;;;8.86;66.12
35551;BME280;21655;46.056;13.616;2023-01-28T12:09:46;100628.78;;;8.19;67.26
35551;BME280;21655;46.056;13.616;2023-01-28T12:44:53;100605.88;;;7.74;71.49
35551;BME280;21655;46.056;13.616;2023-01-28T12:47:25;100609.84;;;7.71;72.45
35551;BME280;21655;46.056;13.616;2023-01-28T12:49:58;100608.03;;;7.80;72.33
35551;BME280;21655;46.056;13.616;2023-01-28T12:52:31;100605.25;;;7.62;72.55
35551;BME280;21655;46.056;13.616;2023-01-28T12:57:42;100613.22;;;7.83;74.04
35551;BME280;21655;46.056;13.616;2023-01-28T13:02:54;100613.16;;;8.45;72.37
35551;BME280;21655;46.056;13.616;2023-01-28T13:05:27;100612.25;;;8.62;70.33
35551;BME280;21655;46.056;13.616;2023-01-28T13:07:59;100607.25;;;8.65;70.91
35551;BME280;21655;46.056;13.616;2023-01-28T13:10:43;100607.44;;;8.46;70.73
35551;BME280;21655;46.056;13.616;2023-01-28T13:13:30;100617.88;;;8.00;72.19
35551;BME280;21655;46.056;13.616;2023-01-28T13:15:56;100616.22;;;7.89;73.31
35551;BME280;21655;46.056;13.616;2023-01-28T13:18:43;100616.56;;;7.86;73.65
35551;BME280;21655;46.056;13.616;2023-01-28T13:23:43;100619.13;;;7.70;75.26
35551;BME280;21655;46.056;13.616;2023-01-28T13:28:47;100627.63;;;7.59;75.81
35551;BME280;21655;46.056;13.616;2023-01-28T13:31:15;100631.56;;;7.57;76.73
35551;BME280;21655;46.056;13.616;2023-01-28T13:34:01;100621.13;;;7.78;77.27
35551;BME280;21655;46.056;13.616;2023-01-28T13:36:30;100628.50;;;7.77;76.46
35551;BME280;21655;46.056;13.616;2023-01-28T13:39:06;100628.50;;;7.60;76.66
35551;BME280;21655;46.056;13.616;2023-01-28T13:41:45;100635.81;;;7.51;76.79
35551;BME280;21655;46.056;13.616;2023-01-28T13:44:18;100644.19;;;7.59;77.77
35551;BME280;21655;46.056;13.616;2023-01-28T13:46:44;100639.31;;;7.71;76.17
35551;BME280;21655;46.056;13.616;2023-01-28T13:49:15;100635.78;;;7.78;76.38
35551;BME280;21655;46.056;13.616;2023-01-28T13:51:55;100638.53;;;7.61;77.56
35551;BME280;21655;46.056;13.616;2023-01-28T13:54:23;100647.13;;;7.58;77.75
35551;BME280;21655;46.056;13.616;2023-01-28T14:00:00;100644.81;;;7.53;78.05
35551;BME280;21655;46.056;13.616;2023-01-28T14:13:43;100653.00;;;8.60;73.52
35551;BME280;21655;46.056;13.616;2023-01-28T14:16:22;100651.38;;;8.32;73.06
35551;BME280;21655;46.056;13.616;2023-01-28T14:18:51;100655.44;;;8.63;73.43
35551;BME280;21655;46.056;13.616;2023-01-28T14:21:21;100654.19;;;8.40;72.83
35551;BME280;21655;46.056;13.616;2023-01-28T14:23:49;100657.81;;;8.05;74.34
35551;BME280;21655;46.056;13.616;2023-01-28T14:29:17;100666.44;;;8.20;75.46
35551;BME280;21655;46.056;13.616;2023-01-28T14:31:45;100664.06;;;8.42;71.76
35551;BME280;21655;46.056;13.616;2023-01-28T14:34:27;100667.34;;;8.63;73.30
35551;BME280;21655;46.056;13.616;2023-01-28T14:36:59;100667.19;;;9.16;70.65
35551;BME280;21655;46.056;13.616;2023-01-28T14:39:28;100668.56;;;9.45;67.39
35551;BME280;21655;46.056;13.616;2023-01-28T14:41:58;100674.44;;;8.83;68.74
35551;BME280;21655;46.056;13.616;2023-01-28T14:44:33;100672.53;;;8.41;70.85
35551;BME280;21655;46.056;13.616;2023-01-28T14:47:29;100688.34;;;7.59;73.90
35551;BME280;21655;46.056;13.616;2023-01-28T14:58:22;100694.91;;;6.76;82.07
35551;BME280;21655;46.056;13.616;2023-01-28T15:01:18;100694.75;;;6.68;83.22